sensor_id;sensor_type;location;lat;lon;timestamp;temperature;humidity
1415;DHT22;702;49.466;11.086;2024-01-16T00:00:08;-0.30;75.10
1415;DHT22;702;49.466;11.086;2024-01-16T00:02:37;-0.30;75.20
1415;DHT22;702;49.466;11.086;2024-01-16T00:05:05;-0.20;75.00
1415;DHT22;702;49.466;11.086;2024-01-16T00:07:33;-0.20;74.80
1415;DHT22;702;49.466;11.086;2024-01-16T00:10:01;-0.30;74.90
1415;DHT22;702;49.466;11.086;2024-01-16T00:12:28;-0.30;74.90
1415;DHT22;702;49.466;11.086;2024-01-16T00:14:55;-0.30;74.80
1415;DHT22;702;49.466;11.086;2024-01-16T00:17:22;-0.30;74.70
1415;DHT22;702;49.466;11.086;2024-01-16T00:19:51;-0.30;74.60
1415;DHT22;702;49.466;11.086;2024-01-16T00:22:18;-0.40;74.40
1415;DHT22;702;49.466;11.086;2024-01-16T00:24:45;-0.30;74.80
1415;DHT22;702;49.466;11.086;2024-01-16T00:27:13;-0.30;74.70
1415;DHT22;702;49.466;11.086;2024-01-16T00:29:40;-0.30;74.50
1415;DHT22;702;49.466;11.086;2024-01-16T00:32:07;-0.30;74.30
1415;DHT22;702;49.466;11.086;2024-01-16T00:34:34;-0.30;74.60
1415;DHT22;702;49.466;11.086;2024-01-16T00:37:03;-0.30;74.30
1415;DHT22;702;49.466;11.086;2024-01-16T00:39:31;-0.40;74.70
1415;DHT22;702;49.466;11.086;2024-01-16T00:42:01;-0.30;74.50
1415;DHT22;702;49.466;11.086;2024-01-16T00:44:29;-0.40;74.60
1415;DHT22;702;49.466;11.086;2024-01-16T00:46:56;-0.40;74.50
1415;DHT22;702;49.466;11.086;2024-01-16T00:49:23;-0.40;74.40
1415;DHT22;702;49.466;11.086;2024-01-16T00:51:50;-0.40;74.40
1415;DHT22;702;49.466;11.086;2024-01-16T00:54:19;-0.40;74.60
1415;DHT22;702;49.466;11.086;2024-01-16T00:56:48;-0.30;74.50
1415;DHT22;702;49.466;11.086;2024-01-16T00:59:15;-0.40;74.70
1415;DHT22;702;49.466;11.086;2024-01-16T01:01:43;-0.40;74.20
1415;DHT22;702;49.466;11.086;2024-01-16T01:04:10;-0.40;74.20
1415;DHT22;702;49.466;11.086;2024-01-16T01:06:37;-0.40;74.40
1415;DHT22;702;49.466;11.086;2024-01-16T01:09:05;-0.40;74.20
1415;DHT22;702;49.466;11.086;2024-01-16T01:11:33;-0.40;74.20
1415;DHT22;702;49.466;11.086;2024-01-16T01:14:01;-0.40;74.30
1415;DHT22;702;49.466;11.086;2024-01-16T01:16:28;-0.40;74.10
1415;DHT22;702;49.466;11.086;2024-01-16T01:18:55;-0.40;74.10
1415;DHT22;702;49.466;11.086;2024-01-16T01:21:23;-0.40;74.10
1415;DHT22;702;49.466;11.086;2024-01-16T01:23:50;-0.40;74.20
1415;DHT22;702;49.466;11.086;2024-01-16T01:26:18;-0.40;74.40
1415;DHT22;702;49.466;11.086;2024-01-16T01:28:46;-0.40;74.30
1415;DHT22;702;49.466;11.086;2024-01-16T01:31:13;-0.50;74.20
1415;DHT22;702;49.466;11.086;2024-01-16T01:33:41;-0.40;74.50
1415;DHT22;702;49.466;11.086;2024-01-16T01:36:08;-0.40;74.50
1415;DHT22;702;49.466;11.086;2024-01-16T01:38:36;-0.50;74.50
1415;DHT22;702;49.466;11.086;2024-01-16T01:41:03;-0.50;74.60
1415;DHT22;702;49.466;11.086;2024-01-16T01:43:30;-0.50;74.60
1415;DHT22;702;49.466;11.086;2024-01-16T01:46:09;-0.50;74.50
1415;DHT22;702;49.466;11.086;2024-01-16T01:48:39;-0.50;74.50
1415;DHT22;702;49.466;11.086;2024-01-16T01:51:08;-0.50;74.60
1415;DHT22;702;49.466;11.086;2024-01-16T01:53:36;-0.50;74.50
1415;DHT22;702;49.466;11.086;2024-01-16T01:56:08;-0.50;74.50
1415;DHT22;702;49.466;11.086;2024-01-16T01:58:36;-0.50;74.70
1415;DHT22;702;49.466;11.086;2024-01-16T02:01:07;-0.50;74.80
1415;DHT22;702;49.466;11.086;2024-01-16T02:03:40;-0.50;74.90
1415;DHT22;702;49.466;11.086;2024-01-16T02:06:09;-0.50;74.70
1415;DHT22;702;49.466;11.086;2024-01-16T02:08:37;-0.50;74.70
1415;DHT22;702;49.466;11.086;2024-01-16T02:11:04;-0.50;74.80
1415;DHT22;702;49.466;11.086;2024-01-16T02:13:32;-0.50;74.80
1415;DHT22;702;49.466;11.086;2024-01-16T02:16:00;-0.50;74.90
1415;DHT22;702;49.466;11.086;2024-01-16T02:18:30;-0.50;75.00
1415;DHT22;702;49.466;11.086;2024-01-16T02:20:59;-0.50;74.70
1415;DHT22;702;49.466;11.086;2024-01-16T02:23:29;-0.50;75.00
1415;DHT22;702;49.466;11.086;2024-01-16T02:25:58;-0.50;75.10
1415;DHT22;702;49.466;11.086;2024-01-16T02:28:25;-0.50;74.90
1415;DHT22;702;49.466;11.086;2024-01-16T02:30:52;-0.60;74.90
1415;DHT22;702;49.466;11.086;2024-01-16T02:33:20;-0.50;74.80
1415;DHT22;702;49.466;11.086;2024-01-16T02:35:47;-0.50;75.00
1415;DHT22;702;49.466;11.086;2024-01-16T02:38:14;-0.50;74.80
1415;DHT22;702;49.466;11.086;2024-01-16T02:40:43;-0.60;74.90
1415;DHT22;702;49.466;11.086;2024-01-16T02:43:10;-0.60;74.90
1415;DHT22;702;49.466;11.086;2024-01-16T02:45:38;-0.50;75.10
1415;DHT22;702;49.466;11.086;2024-01-16T02:48:05;-0.50;75.00
1415;DHT22;702;49.466;11.086;2024-01-16T02:50:33;-0.60;74.90
1415;DHT22;702;49.466;11.086;2024-01-16T02:53:00;-0.60;74.70
1415;DHT22;702;49.466;11.086;2024-01-16T02:55:27;-0.50;74.80
1415;DHT22;702;49.466;11.086;2024-01-16T02:57:56;-0.60;74.80
1415;DHT22;702;49.466;11.086;2024-01-16T03:00:23;-0.50;74.70
1415;DHT22;702;49.466;11.086;2024-01-16T03:02:50;-0.50;74.60
1415;DHT22;702;49.466;11.086;2024-01-16T03:05:18;-0.60;74.50
1415;DHT22;702;49.466;11.086;2024-01-16T03:07:45;-0.60;74.60
1415;DHT22;702;49.466;11.086;2024-01-16T03:10:12;-0.60;74.70
1415;DHT22;702;49.466;11.086;2024-01-16T03:12:39;-0.50;74.60
1415;DHT22;702;49.466;11.086;2024-01-16T03:15:08;-0.50;74.50
1415;DHT22;702;49.466;11.086;2024-01-16T03:17:36;-0.60;74.60
1415;DHT22;702;49.466;11.086;2024-01-16T03:20:04;-0.60;74.60
1415;DHT22;702;49.466;11.086;2024-01-16T03:22:33;-0.60;74.70
1415;DHT22;702;49.466;11.086;2024-01-16T03:24:59;-0.60;74.40
1415;DHT22;702;49.466;11.086;2024-01-16T03:27:28;-0.50;74.60
1415;DHT22;702;49.466;11.086;2024-01-16T03:29:55;-0.50;74.50
1415;DHT22;702;49.466;11.086;2024-01-16T03:32:24;-0.50;74.60
1415;DHT22;702;49.466;11.086;2024-01-16T03:34:51;-0.60;74.50
1415;DHT22;702;49.466;11.086;2024-01-16T03:37:19;-0.60;74.70
1415;DHT22;702;49.466;11.086;2024-01-16T03:39:46;-0.60;74.90
1415;DHT22;702;49.466;11.086;2024-01-16T03:42:13;-0.60;75.30
1415;DHT22;702;49.466;11.086;2024-01-16T03:44:41;-0.60;74.90
1415;DHT22;702;49.466;11.086;2024-01-16T03:47:08;-0.50;74.90
1415;DHT22;702;49.466;11.086;2024-01-16T03:49:37;-0.50;74.90
1415;DHT22;702;49.466;11.086;2024-01-16T03:52:05;-0.50;74.60
1415;DHT22;702;49.466;11.086;2024-01-16T03:54:33;-0.50;74.80
1415;DHT22;702;49.466;11.086;2024-01-16T03:57:00;-0.60;74.70
1415;DHT22;702;49.466;11.086;2024-01-16T03:59:27;-0.60;74.80
1415;DHT22;702;49.466;11.086;2024-01-16T04:01:55;-0.60;74.60
1415;DHT22;702;49.466;11.086;2024-01-16T04:04:22;-0.70;74.50
1415;DHT22;702;49.466;11.086;2024-01-16T04:06:51;-0.70;74.70
1415;DHT22;702;49.466;11.086;2024-01-16T04:09:18;-0.70;74.60
1415;DHT22;702;49.466;11.086;2024-01-16T04:11:49;-0.70;74.60
1415;DHT22;702;49.466;11.086;2024-01-16T04:14:16;-0.70;74.90
1415;DHT22;702;49.466;11.086;2024-01-16T04:16:44;-0.70;74.80
1415;DHT22;702;49.466;11.086;2024-01-16T04:19:12;-0.80;74.90
1415;DHT22;702;49.466;11.086;2024-01-16T04:21:39;-0.80;74.70
1415;DHT22;702;49.466;11.086;2024-01-16T04:24:08;-0.70;74.90
1415;DHT22;702;49.466;11.086;2024-01-16T04:26:36;-0.70;75.00
1415;DHT22;702;49.466;11.086;2024-01-16T04:29:04;-0.60;75.00
1415;DHT22;702;49.466;11.086;2024-01-16T04:31:39;-0.70;74.80
1415;DHT22;702;49.466;11.086;2024-01-16T04:34:07;-0.70;74.80
1415;DHT22;702;49.466;11.086;2024-01-16T04:36:34;-0.70;74.70
1415;DHT22;702;49.466;11.086;2024-01-16T04:39:01;-0.70;74.80
1415;DHT22;702;49.466;11.086;2024-01-16T04:41:31;-0.70;74.70
1415;DHT22;702;49.466;11.086;2024-01-16T04:43:58;-0.70;74.90
1415;DHT22;702;49.466;11.086;2024-01-16T04:46:26;-0.80;74.90
1415;DHT22;702;49.466;11.086;2024-01-16T04:48:53;-0.70;75.10
1415;DHT22;702;49.466;11.086;2024-01-16T04:51:20;-0.70;74.80
1415;DHT22;702;49.466;11.086;2024-01-16T04:53:47;-0.70;75.00
1415;DHT22;702;49.466;11.086;2024-01-16T04:56:15;-0.70;74.70
1415;DHT22;702;49.466;11.086;2024-01-16T04:58:43;-0.70;74.80
1415;DHT22;702;49.466;11.086;2024-01-16T05:01:12;-0.70;75.00
1415;DHT22;702;49.466;11.086;2024-01-16T05:03:39;-0.80;74.60
1415;DHT22;702;49.466;11.086;2024-01-16T05:06:12;-0.70;74.90
1415;DHT22;702;49.466;11.086;2024-01-16T05:08:41;-0.60;74.90
1415;DHT22;702;49.466;11.086;2024-01-16T05:11:08;-0.60;74.70
1415;DHT22;702;49.466;11.086;2024-01-16T05:13:35;-0.60;74.70
1415;DHT22;702;49.466;11.086;2024-01-16T05:16:05;-0.60;74.90
1415;DHT22;702;49.466;11.086;2024-01-16T05:18:32;-0.60;74.90
1415;DHT22;702;49.466;11.086;2024-01-16T05:20:59;-0.70;74.70
1415;DHT22;702;49.466;11.086;2024-01-16T05:23:27;-0.70;74.40
1415;DHT22;702;49.466;11.086;2024-01-16T05:25:54;-0.70;74.50
1415;DHT22;702;49.466;11.086;2024-01-16T05:28:22;-0.80;74.90
1415;DHT22;702;49.466;11.086;2024-01-16T05:30:49;-0.90;74.80
1415;DHT22;702;49.466;11.086;2024-01-16T05:33:18;-0.90;75.10
1415;DHT22;702;49.466;11.086;2024-01-16T05:35:45;-0.90;75.20
1415;DHT22;702;49.466;11.086;2024-01-16T05:38:13;-1.00;75.20
1415;DHT22;702;49.466;11.086;2024-01-16T05:40:41;-1.00;75.40
1415;DHT22;702;49.466;11.086;2024-01-16T05:43:08;-1.00;75.30
1415;DHT22;702;49.466;11.086;2024-01-16T05:45:36;-1.00;75.30
1415;DHT22;702;49.466;11.086;2024-01-16T05:48:04;-1.00;75.40
1415;DHT22;702;49.466;11.086;2024-01-16T05:50:34;-0.90;75.50
1415;DHT22;702;49.466;11.086;2024-01-16T05:53:03;-1.00;75.40
1415;DHT22;702;49.466;11.086;2024-01-16T05:55:32;-1.00;75.50
1415;DHT22;702;49.466;11.086;2024-01-16T05:58:01;-1.10;75.80
1415;DHT22;702;49.466;11.086;2024-01-16T06:00:28;-1.00;75.80
1415;DHT22;702;49.466;11.086;2024-01-16T06:02:56;-1.00;75.70
1415;DHT22;702;49.466;11.086;2024-01-16T06:05:23;-1.00;75.80
1415;DHT22;702;49.466;11.086;2024-01-16T06:07:52;-1.00;75.90
1415;DHT22;702;49.466;11.086;2024-01-16T06:10:19;-0.90;75.60
1415;DHT22;702;49.466;11.086;2024-01-16T06:12:47;-0.90;75.60
1415;DHT22;702;49.466;11.086;2024-01-16T06:15:15;-1.00;75.60
1415;DHT22;702;49.466;11.086;2024-01-16T06:17:43;-1.00;75.90
1415;DHT22;702;49.466;11.086;2024-01-16T06:20:10;-1.00;75.90
1415;DHT22;702;49.466;11.086;2024-01-16T06:22:38;-1.00;76.50
1415;DHT22;702;49.466;11.086;2024-01-16T06:25:08;-0.90;76.30
1415;DHT22;702;49.466;11.086;2024-01-16T06:27:35;-0.90;76.20
1415;DHT22;702;49.466;11.086;2024-01-16T06:30:03;-0.70;76.90
1415;DHT22;702;49.466;11.086;2024-01-16T06:32:31;-0.70;76.60
1415;DHT22;702;49.466;11.086;2024-01-16T06:34:59;-0.60;75.70
1415;DHT22;702;49.466;11.086;2024-01-16T06:37:26;-0.70;75.50
1415;DHT22;702;49.466;11.086;2024-01-16T06:39:53;-0.70;75.70
1415;DHT22;702;49.466;11.086;2024-01-16T06:42:22;-0.70;75.70
1415;DHT22;702;49.466;11.086;2024-01-16T06:44:50;-0.60;75.60
1415;DHT22;702;49.466;11.086;2024-01-16T06:47:17;-0.60;75.40
1415;DHT22;702;49.466;11.086;2024-01-16T06:49:45;-0.60;75.40
1415;DHT22;702;49.466;11.086;2024-01-16T06:52:14;-0.60;75.20
1415;DHT22;702;49.466;11.086;2024-01-16T06:54:42;-0.60;75.50
1415;DHT22;702;49.466;11.086;2024-01-16T06:57:10;-0.60;75.40
1415;DHT22;702;49.466;11.086;2024-01-16T06:59:39;-0.60;75.30
1415;DHT22;702;49.466;11.086;2024-01-16T07:02:06;-0.50;75.20
1415;DHT22;702;49.466;11.086;2024-01-16T07:04:35;-0.50;74.90
1415;DHT22;702;49.466;11.086;2024-01-16T07:07:03;-0.60;75.00
1415;DHT22;702;49.466;11.086;2024-01-16T07:09:30;-0.50;75.10
1415;DHT22;702;49.466;11.086;2024-01-16T07:11:57;-0.50;75.00
1415;DHT22;702;49.466;11.086;2024-01-16T07:14:25;-0.60;74.90
1415;DHT22;702;49.466;11.086;2024-01-16T07:16:54;-0.50;74.90
1415;DHT22;702;49.466;11.086;2024-01-16T07:19:21;-0.50;75.00
1415;DHT22;702;49.466;11.086;2024-01-16T07:21:48;-0.60;75.00
1415;DHT22;702;49.466;11.086;2024-01-16T07:24:16;-0.50;75.10
1415;DHT22;702;49.466;11.086;2024-01-16T07:26:43;-0.60;75.10
1415;DHT22;702;49.466;11.086;2024-01-16T07:29:11;-0.60;75.00
1415;DHT22;702;49.466;11.086;2024-01-16T07:31:38;-0.60;75.00
1415;DHT22;702;49.466;11.086;2024-01-16T07:34:07;-0.70;74.90
1415;DHT22;702;49.466;11.086;2024-01-16T07:36:34;-0.60;75.00
1415;DHT22;702;49.466;11.086;2024-01-16T07:39:02;-0.60;75.00
1415;DHT22;702;49.466;11.086;2024-01-16T07:41:29;-0.50;74.90
1415;DHT22;702;49.466;11.086;2024-01-16T07:43:57;-0.60;74.80
1415;DHT22;702;49.466;11.086;2024-01-16T07:46:24;-0.50;74.70
1415;DHT22;702;49.466;11.086;2024-01-16T07:48:51;-0.50;74.80
1415;DHT22;702;49.466;11.086;2024-01-16T07:51:20;-0.40;74.50
1415;DHT22;702;49.466;11.086;2024-01-16T07:53:47;-0.40;74.10
1415;DHT22;702;49.466;11.086;2024-01-16T07:56:17;-0.30;74.10
1415;DHT22;702;49.466;11.086;2024-01-16T07:58:45;-0.20;74.00
1415;DHT22;702;49.466;11.086;2024-01-16T08:01:12;-0.20;73.80
1415;DHT22;702;49.466;11.086;2024-01-16T08:03:39;-0.20;73.90
1415;DHT22;702;49.466;11.086;2024-01-16T08:06:06;-0.20;73.50
1415;DHT22;702;49.466;11.086;2024-01-16T08:08:35;-0.20;73.50
1415;DHT22;702;49.466;11.086;2024-01-16T08:11:03;-0.20;73.50
1415;DHT22;702;49.466;11.086;2024-01-16T08:13:30;-0.20;73.50
1415;DHT22;702;49.466;11.086;2024-01-16T08:15:57;-0.20;73.40
1415;DHT22;702;49.466;11.086;2024-01-16T08:18:25;-0.20;73.50
1415;DHT22;702;49.466;11.086;2024-01-16T08:20:52;-0.20;73.70
1415;DHT22;702;49.466;11.086;2024-01-16T08:23:19;-0.10;73.40
1415;DHT22;702;49.466;11.086;2024-01-16T08:25:49;0.00;73.00
1415;DHT22;702;49.466;11.086;2024-01-16T08:28:17;0.10;72.80
1415;DHT22;702;49.466;11.086;2024-01-16T08:30:45;0.20;73.30
1415;DHT22;702;49.466;11.086;2024-01-16T08:33:12;0.30;73.00
1415;DHT22;702;49.466;11.086;2024-01-16T08:35:40;0.30;72.40
1415;DHT22;702;49.466;11.086;2024-01-16T08:38:07;0.40;72.30
1415;DHT22;702;49.466;11.086;2024-01-16T08:40:34;0.40;71.80
1415;DHT22;702;49.466;11.086;2024-01-16T08:43:03;0.40;71.70
1415;DHT22;702;49.466;11.086;2024-01-16T08:45:30;0.40;71.70
1415;DHT22;702;49.466;11.086;2024-01-16T08:47:58;0.40;71.60
1415;DHT22;702;49.466;11.086;2024-01-16T08:50:26;0.40;71.20
1415;DHT22;702;49.466;11.086;2024-01-16T08:52:53;0.40;71.50
1415;DHT22;702;49.466;11.086;2024-01-16T08:55:20;0.20;71.40
1415;DHT22;702;49.466;11.086;2024-01-16T08:57:47;0.10;71.20
1415;DHT22;702;49.466;11.086;2024-01-16T09:00:17;0.20;71.50
1415;DHT22;702;49.466;11.086;2024-01-16T09:02:44;0.40;71.30
1415;DHT22;702;49.466;11.086;2024-01-16T09:05:12;0.20;71.30
1415;DHT22;702;49.466;11.086;2024-01-16T09:07:40;0.40;70.90
1415;DHT22;702;49.466;11.086;2024-01-16T09:10:08;0.60;70.90
1415;DHT22;702;49.466;11.086;2024-01-16T09:12:36;0.60;70.90
1415;DHT22;702;49.466;11.086;2024-01-16T09:15:04;0.70;70.20
1415;DHT22;702;49.466;11.086;2024-01-16T09:17:34;0.80;70.40
1415;DHT22;702;49.466;11.086;2024-01-16T09:20:01;0.90;69.80
1415;DHT22;702;49.466;11.086;2024-01-16T09:22:28;1.10;69.80
1415;DHT22;702;49.466;11.086;2024-01-16T09:24:55;0.90;69.60
1415;DHT22;702;49.466;11.086;2024-01-16T09:27:23;1.00;69.20
1415;DHT22;702;49.466;11.086;2024-01-16T09:29:51;0.90;69.20
1415;DHT22;702;49.466;11.086;2024-01-16T09:32:18;0.80;69.30
1415;DHT22;702;49.466;11.086;2024-01-16T09:34:47;0.80;69.20
1415;DHT22;702;49.466;11.086;2024-01-16T09:37:14;0.80;69.00
1415;DHT22;702;49.466;11.086;2024-01-16T09:39:42;0.80;68.90
1415;DHT22;702;49.466;11.086;2024-01-16T09:42:09;1.00;68.80
1415;DHT22;702;49.466;11.086;2024-01-16T09:44:37;0.90;69.00
1415;DHT22;702;49.466;11.086;2024-01-16T09:47:05;0.90;69.20
1415;DHT22;702;49.466;11.086;2024-01-16T09:49:33;0.80;69.40
1415;DHT22;702;49.466;11.086;2024-01-16T09:52:02;0.50;69.00
1415;DHT22;702;49.466;11.086;2024-01-16T09:54:30;0.50;69.60
1415;DHT22;702;49.466;11.086;2024-01-16T09:56:59;0.60;69.10
1415;DHT22;702;49.466;11.086;2024-01-16T09:59:29;0.70;69.30
1415;DHT22;702;49.466;11.086;2024-01-16T10:01:58;0.80;69.20
1415;DHT22;702;49.466;11.086;2024-01-16T10:04:27;1.00;68.70
1415;DHT22;702;49.466;11.086;2024-01-16T10:06:55;1.10;68.40
1415;DHT22;702;49.466;11.086;2024-01-16T10:09:26;1.10;68.10
1415;DHT22;702;49.466;11.086;2024-01-16T10:11:53;1.00;68.60
1415;DHT22;702;49.466;11.086;2024-01-16T10:14:21;1.20;68.90
1415;DHT22;702;49.466;11.086;2024-01-16T10:16:57;1.20;68.60
1415;DHT22;702;49.466;11.086;2024-01-16T10:19:29;1.20;68.50
1415;DHT22;702;49.466;11.086;2024-01-16T10:22:01;1.30;68.10
1415;DHT22;702;49.466;11.086;2024-01-16T10:24:30;1.40;68.30
1415;DHT22;702;49.466;11.086;2024-01-16T10:27:00;1.30;68.50
1415;DHT22;702;49.466;11.086;2024-01-16T10:29:28;1.20;68.80
1415;DHT22;702;49.466;11.086;2024-01-16T10:31:57;1.10;68.40
1415;DHT22;702;49.466;11.086;2024-01-16T10:34:25;1.10;69.00
1415;DHT22;702;49.466;11.086;2024-01-16T10:36:59;1.00;69.20
1415;DHT22;702;49.466;11.086;2024-01-16T10:39:26;1.00;67.80
1415;DHT22;702;49.466;11.086;2024-01-16T10:41:56;1.10;68.80
1415;DHT22;702;49.466;11.086;2024-01-16T10:44:24;1.10;68.30
1415;DHT22;702;49.466;11.086;2024-01-16T10:47:09;1.10;68.70
1415;DHT22;702;49.466;11.086;2024-01-16T10:49:38;1.10;68.20
1415;DHT22;702;49.466;11.086;2024-01-16T10:52:10;1.20;68.50
1415;DHT22;702;49.466;11.086;2024-01-16T10:54:41;1.30;67.50
1415;DHT22;702;49.466;11.086;2024-01-16T10:57:13;1.30;68.00
1415;DHT22;702;49.466;11.086;2024-01-16T10:59:45;1.50;67.80
1415;DHT22;702;49.466;11.086;2024-01-16T11:02:20;1.80;67.70
1415;DHT22;702;49.466;11.086;2024-01-16T11:04:48;1.60;67.40
1415;DHT22;702;49.466;11.086;2024-01-16T11:07:17;2.10;66.60
1415;DHT22;702;49.466;11.086;2024-01-16T11:09:44;2.10;65.90
1415;DHT22;702;49.466;11.086;2024-01-16T11:12:14;2.30;65.70
1415;DHT22;702;49.466;11.086;2024-01-16T11:14:46;2.10;66.10
1415;DHT22;702;49.466;11.086;2024-01-16T11:17:17;1.90;66.50
1415;DHT22;702;49.466;11.086;2024-01-16T11:19:47;1.90;66.10
1415;DHT22;702;49.466;11.086;2024-01-16T11:22:16;1.70;66.60
1415;DHT22;702;49.466;11.086;2024-01-16T11:24:45;1.70;66.70
1415;DHT22;702;49.466;11.086;2024-01-16T11:27:23;1.80;66.60
1415;DHT22;702;49.466;11.086;2024-01-16T11:29:50;2.00;66.00
1415;DHT22;702;49.466;11.086;2024-01-16T11:32:33;2.00;64.80
1415;DHT22;702;49.466;11.086;2024-01-16T11:35:03;1.90;65.10
1415;DHT22;702;49.466;11.086;2024-01-16T11:37:32;1.70;65.00
1415;DHT22;702;49.466;11.086;2024-01-16T11:40:21;1.40;65.60
1415;DHT22;702;49.466;11.086;2024-01-16T11:42:51;1.40;65.80
1415;DHT22;702;49.466;11.086;2024-01-16T11:45:50;1.30;65.60
1415;DHT22;702;49.466;11.086;2024-01-16T11:48:19;1.40;65.80
1415;DHT22;702;49.466;11.086;2024-01-16T11:50:47;1.90;65.00
1415;DHT22;702;49.466;11.086;2024-01-16T11:53:37;2.20;63.80
1415;DHT22;702;49.466;11.086;2024-01-16T11:56:26;2.40;63.30
1415;DHT22;702;49.466;11.086;2024-01-16T11:59:42;2.50;62.50
1415;DHT22;702;49.466;11.086;2024-01-16T12:02:42;2.40;62.60
1415;DHT22;702;49.466;11.086;2024-01-16T12:05:21;2.20;62.50
1415;DHT22;702;49.466;11.086;2024-01-16T12:07:50;2.30;62.20
1415;DHT22;702;49.466;11.086;2024-01-16T12:10:21;2.50;61.70
1415;DHT22;702;49.466;11.086;2024-01-16T12:12:49;2.50;61.90
1415;DHT22;702;49.466;11.086;2024-01-16T12:15:20;2.70;61.20
1415;DHT22;702;49.466;11.086;2024-01-16T12:17:56;2.80;60.80
1415;DHT22;702;49.466;11.086;2024-01-16T12:20:28;2.80;60.80
1415;DHT22;702;49.466;11.086;2024-01-16T12:22:57;2.50;60.90
1415;DHT22;702;49.466;11.086;2024-01-16T12:25:30;2.40;61.70
1415;DHT22;702;49.466;11.086;2024-01-16T12:27:59;2.50;61.80
1415;DHT22;702;49.466;11.086;2024-01-16T12:30:30;2.60;59.40
1415;DHT22;702;49.466;11.086;2024-01-16T12:33:06;2.60;59.40
1415;DHT22;702;49.466;11.086;2024-01-16T12:35:35;2.60;59.50
1415;DHT22;702;49.466;11.086;2024-01-16T12:38:04;2.60;59.50
1415;DHT22;702;49.466;11.086;2024-01-16T12:40:33;2.50;59.80
1415;DHT22;702;49.466;11.086;2024-01-16T12:43:02;2.40;60.30
1415;DHT22;702;49.466;11.086;2024-01-16T12:45:32;2.50;60.20
1415;DHT22;702;49.466;11.086;2024-01-16T12:48:00;2.60;59.70
1415;DHT22;702;49.466;11.086;2024-01-16T12:50:30;2.70;59.80
1415;DHT22;702;49.466;11.086;2024-01-16T12:53:02;2.70;59.30
1415;DHT22;702;49.466;11.086;2024-01-16T12:55:32;2.80;58.80
1415;DHT22;702;49.466;11.086;2024-01-16T12:58:16;2.80;59.40
1415;DHT22;702;49.466;11.086;2024-01-16T13:00:47;3.00;59.10
1415;DHT22;702;49.466;11.086;2024-01-16T13:03:17;2.90;58.70
1415;DHT22;702;49.466;11.086;2024-01-16T13:05:46;2.90;58.90
1415;DHT22;702;49.466;11.086;2024-01-16T13:08:22;3.00;58.60
1415;DHT22;702;49.466;11.086;2024-01-16T13:11:02;2.60;58.50
1415;DHT22;702;49.466;11.086;2024-01-16T13:13:30;2.50;58.80
1415;DHT22;702;49.466;11.086;2024-01-16T13:16:00;2.60;58.70
1415;DHT22;702;49.466;11.086;2024-01-16T13:18:29;2.70;58.90
1415;DHT22;702;49.466;11.086;2024-01-16T13:20:57;2.80;58.40
1415;DHT22;702;49.466;11.086;2024-01-16T13:23:26;2.60;57.90
1415;DHT22;702;49.466;11.086;2024-01-16T13:25:55;2.40;58.20
1415;DHT22;702;49.466;11.086;2024-01-16T13:28:25;2.40;58.10
1415;DHT22;702;49.466;11.086;2024-01-16T13:30:53;2.30;57.90
1415;DHT22;702;49.466;11.086;2024-01-16T13:33:23;2.20;57.90
1415;DHT22;702;49.466;11.086;2024-01-16T13:35:53;2.10;58.30
1415;DHT22;702;49.466;11.086;2024-01-16T13:38:21;2.30;58.80
1415;DHT22;702;49.466;11.086;2024-01-16T13:40:49;2.40;58.40
1415;DHT22;702;49.466;11.086;2024-01-16T13:43:17;2.40;58.30
1415;DHT22;702;49.466;11.086;2024-01-16T13:45:52;2.10;58.20
1415;DHT22;702;49.466;11.086;2024-01-16T13:48:19;1.90;58.80
1415;DHT22;702;49.466;11.086;2024-01-16T13:50:48;2.20;58.60
1415;DHT22;702;49.466;11.086;2024-01-16T13:53:16;2.50;58.10
1415;DHT22;702;49.466;11.086;2024-01-16T13:55:44;2.80;57.30
1415;DHT22;702;49.466;11.086;2024-01-16T13:58:12;2.90;57.30
1415;DHT22;702;49.466;11.086;2024-01-16T14:00:39;2.70;56.90
1415;DHT22;702;49.466;11.086;2024-01-16T14:03:08;2.50;56.90
1415;DHT22;702;49.466;11.086;2024-01-16T14:05:37;2.50;57.30
1415;DHT22;702;49.466;11.086;2024-01-16T14:08:07;2.40;57.60
1415;DHT22;702;49.466;11.086;2024-01-16T14:10:38;2.20;57.30
1415;DHT22;702;49.466;11.086;2024-01-16T14:13:06;1.90;57.50
1415;DHT22;702;49.466;11.086;2024-01-16T14:15:37;2.00;57.90
1415;DHT22;702;49.466;11.086;2024-01-16T14:18:05;2.00;57.80
1415;DHT22;702;49.466;11.086;2024-01-16T14:20:34;1.80;57.90
1415;DHT22;702;49.466;11.086;2024-01-16T14:23:04;1.60;57.80
1415;DHT22;702;49.466;11.086;2024-01-16T14:25:35;1.40;58.20
1415;DHT22;702;49.466;11.086;2024-01-16T14:28:05;1.30;58.50
1415;DHT22;702;49.466;11.086;2024-01-16T14:30:35;1.20;58.60
1415;DHT22;702;49.466;11.086;2024-01-16T14:33:05;1.30;58.30
1415;DHT22;702;49.466;11.086;2024-01-16T14:35:34;1.30;58.30
1415;DHT22;702;49.466;11.086;2024-01-16T14:38:02;1.40;58.60
1415;DHT22;702;49.466;11.086;2024-01-16T14:40:34;1.40;58.60
1415;DHT22;702;49.466;11.086;2024-01-16T14:43:02;1.40;58.80
1415;DHT22;702;49.466;11.086;2024-01-16T14:45:31;1.40;59.20
1415;DHT22;702;49.466;11.086;2024-01-16T14:47:58;1.30;59.50
1415;DHT22;702;49.466;11.086;2024-01-16T14:50:25;1.30;59.10
1415;DHT22;702;49.466;11.086;2024-01-16T14:52:53;1.40;59.30
1415;DHT22;702;49.466;11.086;2024-01-16T14:55:22;1.40;59.00
1415;DHT22;702;49.466;11.086;2024-01-16T14:57:51;1.50;58.40
1415;DHT22;702;49.466;11.086;2024-01-16T15:00:25;1.50;58.70
1415;DHT22;702;49.466;11.086;2024-01-16T15:02:54;1.40;58.80
1415;DHT22;702;49.466;11.086;2024-01-16T15:05:23;1.30;59.00
1415;DHT22;702;49.466;11.086;2024-01-16T15:07:51;1.10;59.00
1415;DHT22;702;49.466;11.086;2024-01-16T15:10:19;1.10;59.20
1415;DHT22;702;49.466;11.086;2024-01-16T15:12:48;1.00;59.10
1415;DHT22;702;49.466;11.086;2024-01-16T15:15:16;1.00;59.70
1415;DHT22;702;49.466;11.086;2024-01-16T15:17:49;1.00;59.10
1415;DHT22;702;49.466;11.086;2024-01-16T15:20:17;0.90;59.20
1415;DHT22;702;49.466;11.086;2024-01-16T15:22:45;0.90;59.20
1415;DHT22;702;49.466;11.086;2024-01-16T15:25:14;0.80;59.50
1415;DHT22;702;49.466;11.086;2024-01-16T15:27:43;0.80;58.80
1415;DHT22;702;49.466;11.086;2024-01-16T15:30:14;0.80;58.70
1415;DHT22;702;49.466;11.086;2024-01-16T15:32:42;0.70;59.00
1415;DHT22;702;49.466;11.086;2024-01-16T15:35:09;0.60;59.00
1415;DHT22;702;49.466;11.086;2024-01-16T15:37:37;0.60;59.00
1415;DHT22;702;49.466;11.086;2024-01-16T15:40:06;0.50;59.50
1415;DHT22;702;49.466;11.086;2024-01-16T15:42:34;0.50;59.90
1415;DHT22;702;49.466;11.086;2024-01-16T15:45:02;0.40;60.00
1415;DHT22;702;49.466;11.086;2024-01-16T15:47:31;0.40;59.80
1415;DHT22;702;49.466;11.086;2024-01-16T15:49:59;0.40;59.30
1415;DHT22;702;49.466;11.086;2024-01-16T15:52:30;0.40;59.00
1415;DHT22;702;49.466;11.086;2024-01-16T15:54:58;0.50;59.00
1415;DHT22;702;49.466;11.086;2024-01-16T15:57:25;0.40;59.20
1415;DHT22;702;49.466;11.086;2024-01-16T15:59:53;0.40;59.30
1415;DHT22;702;49.466;11.086;2024-01-16T16:02:23;0.40;59.60
1415;DHT22;702;49.466;11.086;2024-01-16T16:04:52;0.40;60.10
1415;DHT22;702;49.466;11.086;2024-01-16T16:07:20;0.30;60.40
1415;DHT22;702;49.466;11.086;2024-01-16T16:09:47;0.20;60.50
1415;DHT22;702;49.466;11.086;2024-01-16T16:12:16;0.20;61.30
1415;DHT22;702;49.466;11.086;2024-01-16T16:14:44;0.20;61.20
1415;DHT22;702;49.466;11.086;2024-01-16T16:17:12;0.20;61.20
1415;DHT22;702;49.466;11.086;2024-01-16T16:19:40;0.10;61.10